sensor_id;sensor_type;location;lat;lon;timestamp;P1;durP1;ratioP1;P2;durP2;ratioP2
70067;SDS011;57425;51.616;6.680;2022-11-11T00:01:00;6.77;;;2.00;;
70067;SDS011;57425;51.616;6.680;2022-11-11T00:03:26;4.53;;;1.80;;
70067;SDS011;57425;51.616;6.680;2022-11-11T00:05:52;6.50;;;2.07;;
70067;SDS011;57425;51.616;6.680;2022-11-11T00:08:18;5.97;;;1.93;;
70067;SDS011;57425;51.616;6.680;2022-11-11T00:10:43;7.23;;;2.07;;
70067;SDS011;57425;51.616;6.680;2022-11-11T00:13:09;3.50;;;1.70;;
70067;SDS011;57425;51.616;6.680;2022-11-11T00:15:36;6.37;;;2.53;;
70067;SDS011;57425;51.616;6.680;2022-11-11T00:18:03;5.23;;;2.03;;
70067;SDS011;57425;51.616;6.680;2022-11-11T00:20:53;4.20;;;2.70;;
70067;SDS011;57425;51.616;6.680;2022-11-11T00:23:40;6.73;;;2.70;;
70067;SDS011;57425;51.616;6.680;2022-11-11T00:26:24;5.10;;;2.27;;
70067;SDS011;57425;51.616;6.680;2022-11-11T00:28:52;11.10;;;2.83;;
70067;SDS011;57425;51.616;6.680;2022-11-11T00:31:18;5.07;;;1.93;;
70067;SDS011;57425;51.616;6.680;2022-11-11T00:33:43;6.23;;;2.20;;
70067;SDS011;57425;51.616;6.680;2022-11-11T00:36:09;6.90;;;2.07;;
70067;SDS011;57425;51.616;6.680;2022-11-11T00:38:34;8.47;;;2.10;;
70067;SDS011;57425;51.616;6.680;2022-11-11T00:41:10;4.57;;;2.33;;
70067;SDS011;57425;51.616;6.680;2022-11-11T00:43:37;4.83;;;1.77;;
70067;SDS011;57425;51.616;6.680;2022-11-11T00:46:02;6.03;;;2.33;;
70067;SDS011;57425;51.616;6.680;2022-11-11T00:48:47;8.03;;;2.07;;
70067;SDS011;57425;51.616;6.680;2022-11-11T00:51:31;9.47;;;2.07;;
70067;SDS011;57425;51.616;6.680;2022-11-11T00:53:57;5.40;;;2.40;;
70067;SDS011;57425;51.616;6.680;2022-11-11T00:56:23;5.93;;;2.13;;
70067;SDS011;57425;51.616;6.680;2022-11-11T00:58:49;8.77;;;2.33;;
70067;SDS011;57425;51.616;6.680;2022-11-11T01:01:15;12.23;;;2.13;;
70067;SDS011;57425;51.616;6.680;2022-11-11T01:03:42;10.03;;;2.27;;
70067;SDS011;57425;51.616;6.680;2022-11-11T01:06:08;3.77;;;2.00;;
70067;SDS011;57425;51.616;6.680;2022-11-11T01:08:36;6.83;;;2.07;;
70067;SDS011;57425;51.616;6.680;2022-11-11T01:11:01;4.57;;;2.57;;
70067;SDS011;57425;51.616;6.680;2022-11-11T01:16:05;4.77;;;2.33;;
70067;SDS011;57425;51.616;6.680;2022-11-11T01:18:32;5.13;;;2.00;;
70067;SDS011;57425;51.616;6.680;2022-11-11T01:21:02;19.33;;;2.63;;
70067;SDS011;57425;51.616;6.680;2022-11-11T01:23:30;7.00;;;2.30;;
70067;SDS011;57425;51.616;6.680;2022-11-11T01:26:30;5.43;;;2.10;;
70067;SDS011;57425;51.616;6.680;2022-11-11T01:28:51;8.90;;;2.85;;
70067;SDS011;57425;51.616;6.680;2022-11-11T01:31:18;4.07;;;2.00;;
70067;SDS011;57425;51.616;6.680;2022-11-11T01:33:45;6.63;;;3.73;;
70067;SDS011;57425;51.616;6.680;2022-11-11T01:36:12;4.40;;;1.80;;
70067;SDS011;57425;51.616;6.680;2022-11-11T01:38:41;6.70;;;2.30;;
70067;SDS011;57425;51.616;6.680;2022-11-11T01:41:07;11.93;;;2.90;;
70067;SDS011;57425;51.616;6.680;2022-11-11T01:43:55;5.80;;;2.20;;
70067;SDS011;57425;51.616;6.680;2022-11-11T01:52:02;5.10;;;2.23;;
70067;SDS011;57425;51.616;6.680;2022-11-11T01:57:12;5.50;;;2.30;;
70067;SDS011;57425;51.616;6.680;2022-11-11T01:59:49;5.47;;;2.20;;
70067;SDS011;57425;51.616;6.680;2022-11-11T02:02:28;12.50;;;2.70;;
70067;SDS011;57425;51.616;6.680;2022-11-11T02:05:04;7.80;;;2.40;;
70067;SDS011;57425;51.616;6.680;2022-11-11T02:07:53;7.93;;;2.40;;
70067;SDS011;57425;51.616;6.680;2022-11-11T02:10:21;4.47;;;2.20;;
70067;SDS011;57425;51.616;6.680;2022-11-11T02:12:48;8.87;;;3.00;;
70067;SDS011;57425;51.616;6.680;2022-11-11T02:15:34;7.53;;;2.93;;
70067;SDS011;57425;51.616;6.680;2022-11-11T02:18:00;5.17;;;2.27;;
70067;SDS011;57425;51.616;6.680;2022-11-11T02:20:27;5.23;;;2.50;;
70067;SDS011;57425;51.616;6.680;2022-11-11T02:23:05;3.87;;;2.33;;
70067;SDS011;57425;51.616;6.680;2022-11-11T02:25:47;9.40;;;2.67;;
70067;SDS011;57425;51.616;6.680;2022-11-11T02:28:14;5.53;;;2.13;;
70067;SDS011;57425;51.616;6.680;2022-11-11T02:30:42;3.50;;;2.10;;
70067;SDS011;57425;51.616;6.680;2022-11-11T02:33:07;9.07;;;2.80;;
70067;SDS011;57425;51.616;6.680;2022-11-11T02:35:34;6.10;;;2.10;;
70067;SDS011;57425;51.616;6.680;2022-11-11T02:38:05;11.47;;;2.40;;
70067;SDS011;57425;51.616;6.680;2022-11-11T02:40:37;8.03;;;2.53;;
70067;SDS011;57425;51.616;6.680;2022-11-11T02:43:27;6.07;;;2.20;;
70067;SDS011;57425;51.616;6.680;2022-11-11T02:45:54;4.13;;;1.90;;
70067;SDS011;57425;51.616;6.680;2022-11-11T02:48:20;5.77;;;2.17;;
70067;SDS011;57425;51.616;6.680;2022-11-11T02:50:46;8.40;;;2.40;;
70067;SDS011;57425;51.616;6.680;2022-11-11T02:53:11;5.00;;;2.00;;
70067;SDS011;57425;51.616;6.680;2022-11-11T02:55:37;4.43;;;1.90;;
70067;SDS011;57425;51.616;6.680;2022-11-11T02:58:03;7.47;;;2.20;;
70067;SDS011;57425;51.616;6.680;2022-11-11T03:00:28;5.57;;;2.07;;
70067;SDS011;57425;51.616;6.680;2022-11-11T03:02:54;3.30;;;1.97;;
70067;SDS011;57425;51.616;6.680;2022-11-11T03:05:20;4.63;;;2.37;;
70067;SDS011;57425;51.616;6.680;2022-11-11T03:07:46;5.83;;;1.93;;
70067;SDS011;57425;51.616;6.680;2022-11-11T03:10:11;8.40;;;2.30;;
70067;SDS011;57425;51.616;6.680;2022-11-11T03:12:38;6.10;;;1.87;;
70067;SDS011;57425;51.616;6.680;2022-11-11T03:15:04;6.40;;;1.87;;
70067;SDS011;57425;51.616;6.680;2022-11-11T03:17:30;4.90;;;2.27;;
70067;SDS011;57425;51.616;6.680;2022-11-11T03:23:25;3.60;;;1.53;;
70067;SDS011;57425;51.616;6.680;2022-11-11T03:25:45;6.60;;;2.30;;
70067;SDS011;57425;51.616;6.680;2022-11-11T03:28:13;4.50;;;1.77;;
70067;SDS011;57425;51.616;6.680;2022-11-11T03:30:40;4.93;;;2.20;;
70067;SDS011;57425;51.616;6.680;2022-11-11T03:33:08;8.37;;;2.37;;
70067;SDS011;57425;51.616;6.680;2022-11-11T03:35:35;7.40;;;2.10;;
70067;SDS011;57425;51.616;6.680;2022-11-11T03:38:01;8.60;;;2.30;;
70067;SDS011;57425;51.616;6.680;2022-11-11T03:40:44;4.93;;;2.30;;
70067;SDS011;57425;51.616;6.680;2022-11-11T03:43:11;3.97;;;1.80;;
70067;SDS011;57425;51.616;6.680;2022-11-11T03:45:38;5.63;;;1.93;;
70067;SDS011;57425;51.616;6.680;2022-11-11T03:48:04;6.17;;;1.93;;
70067;SDS011;57425;51.616;6.680;2022-11-11T03:50:30;9.40;;;1.73;;
70067;SDS011;57425;51.616;6.680;2022-11-11T03:52:56;5.30;;;2.03;;
70067;SDS011;57425;51.616;6.680;2022-11-11T03:55:22;6.73;;;1.70;;
70067;SDS011;57425;51.616;6.680;2022-11-11T03:57:47;5.93;;;2.47;;
70067;SDS011;57425;51.616;6.680;2022-11-11T04:00:14;6.83;;;2.13;;
70067;SDS011;57425;51.616;6.680;2022-11-11T04:02:41;2.43;;;1.97;;
70067;SDS011;57425;51.616;6.680;2022-11-11T04:05:26;3.17;;;1.67;;
70067;SDS011;57425;51.616;6.680;2022-11-11T04:08:11;8.23;;;2.73;;
70067;SDS011;57425;51.616;6.680;2022-11-11T04:11:03;4.20;;;2.00;;
70067;SDS011;57425;51.616;6.680;2022-11-11T04:13:35;5.60;;;2.27;;
70067;SDS011;57425;51.616;6.680;2022-11-11T04:16:19;6.57;;;2.30;;
70067;SDS011;57425;51.616;6.680;2022-11-11T04:18:45;8.43;;;2.57;;
70067;SDS011;57425;51.616;6.680;2022-11-11T04:21:29;2.00;;;1.67;;
70067;SDS011;57425;51.616;6.680;2022-11-11T04:24:13;6.53;;;2.27;;
70067;SDS011;57425;51.616;6.680;2022-11-11T04:27:00;6.83;;;2.40;;
70067;SDS011;57425;51.616;6.680;2022-11-11T04:29:27;8.13;;;2.70;;
70067;SDS011;57425;51.616;6.680;2022-11-11T04:32:00;7.63;;;2.63;;
70067;SDS011;57425;51.616;6.680;2022-11-11T04:34:48;10.57;;;2.20;;
70067;SDS011;57425;51.616;6.680;2022-11-11T04:37:16;8.00;;;2.00;;
70067;SDS011;57425;51.616;6.680;2022-11-11T04:39:42;3.97;;;1.80;;
70067;SDS011;57425;51.616;6.680;2022-11-11T04:42:27;4.87;;;2.27;;
70067;SDS011;57425;51.616;6.680;2022-11-11T04:44:53;13.57;;;2.43;;
70067;SDS011;57425;51.616;6.680;2022-11-11T04:47:38;4.43;;;2.43;;
70067;SDS011;57425;51.616;6.680;2022-11-11T04:50:16;5.63;;;2.50;;
70067;SDS011;57425;51.616;6.680;2022-11-11T04:52:43;5.40;;;2.27;;
70067;SDS011;57425;51.616;6.680;2022-11-11T04:55:08;8.20;;;2.30;;
70067;SDS011;57425;51.616;6.680;2022-11-11T04:57:53;7.87;;;2.27;;
70067;SDS011;57425;51.616;6.680;2022-11-11T05:00:18;7.77;;;1.87;;
70067;SDS011;57425;51.616;6.680;2022-11-11T05:02:44;4.07;;;1.97;;
70067;SDS011;57425;51.616;6.680;2022-11-11T05:05:29;5.23;;;1.80;;
70067;SDS011;57425;51.616;6.680;2022-11-11T05:08:14;4.47;;;2.13;;
70067;SDS011;57425;51.616;6.680;2022-11-11T05:10:59;8.43;;;2.40;;
70067;SDS011;57425;51.616;6.680;2022-11-11T05:13:24;9.67;;;2.43;;
70067;SDS011;57425;51.616;6.680;2022-11-11T05:16:13;7.20;;;2.23;;
70067;SDS011;57425;51.616;6.680;2022-11-11T05:19:02;5.55;;;2.20;;
70067;SDS011;57425;51.616;6.680;2022-11-11T05:21:47;5.87;;;2.60;;
70067;SDS011;57425;51.616;6.680;2022-11-11T05:24:15;7.97;;;2.33;;
70067;SDS011;57425;51.616;6.680;2022-11-11T05:26:59;9.03;;;3.07;;
70067;SDS011;57425;51.616;6.680;2022-11-11T05:29:24;5.90;;;2.60;;
70067;SDS011;57425;51.616;6.680;2022-11-11T05:31:50;10.77;;;2.60;;
70067;SDS011;57425;51.616;6.680;2022-11-11T05:34:16;5.53;;;2.77;;
70067;SDS011;57425;51.616;6.680;2022-11-11T05:36:41;11.30;;;2.47;;
70067;SDS011;57425;51.616;6.680;2022-11-11T05:39:07;5.50;;;2.77;;
70067;SDS011;57425;51.616;6.680;2022-11-11T05:41:33;6.93;;;2.70;;
70067;SDS011;57425;51.616;6.680;2022-11-11T05:43:59;9.63;;;2.77;;
70067;SDS011;57425;51.616;6.680;2022-11-11T05:46:25;4.97;;;2.50;;
70067;SDS011;57425;51.616;6.680;2022-11-11T05:48:50;4.67;;;2.80;;
70067;SDS011;57425;51.616;6.680;2022-11-11T05:51:34;7.17;;;2.97;;
70067;SDS011;57425;51.616;6.680;2022-11-11T05:54:00;6.67;;;3.17;;
70067;SDS011;57425;51.616;6.680;2022-11-11T05:56:25;16.13;;;3.17;;
70067;SDS011;57425;51.616;6.680;2022-11-11T05:58:51;2.97;;;2.23;;
70067;SDS011;57425;51.616;6.680;2022-11-11T06:01:17;5.60;;;2.70;;
70067;SDS011;57425;51.616;6.680;2022-11-11T06:03:43;5.40;;;2.67;;
70067;SDS011;57425;51.616;6.680;2022-11-11T06:06:09;7.17;;;2.37;;
70067;SDS011;57425;51.616;6.680;2022-11-11T06:08:35;5.37;;;3.33;;
70067;SDS011;57425;51.616;6.680;2022-11-11T06:11:02;6.97;;;2.67;;
70067;SDS011;57425;51.616;6.680;2022-11-11T06:13:27;6.47;;;2.57;;
70067;SDS011;57425;51.616;6.680;2022-11-11T06:15:54;6.50;;;3.10;;
70067;SDS011;57425;51.616;6.680;2022-11-11T06:18:21;10.37;;;2.70;;
70067;SDS011;57425;51.616;6.680;2022-11-11T06:20:54;8.00;;;2.97;;
70067;SDS011;57425;51.616;6.680;2022-11-11T06:23:23;6.57;;;2.60;;
70067;SDS011;57425;51.616;6.680;2022-11-11T06:25:49;6.50;;;3.40;;
70067;SDS011;57425;51.616;6.680;2022-11-11T06:28:34;7.53;;;3.07;;
70067;SDS011;57425;51.616;6.680;2022-11-11T06:31:01;8.57;;;3.70;;
70067;SDS011;57425;51.616;6.680;2022-11-11T06:33:27;4.80;;;3.00;;
70067;SDS011;57425;51.616;6.680;2022-11-11T06:35:53;4.67;;;3.10;;
70067;SDS011;57425;51.616;6.680;2022-11-11T06:38:18;7.30;;;2.90;;
70067;SDS011;57425;51.616;6.680;2022-11-11T06:40:45;8.80;;;3.33;;
70067;SDS011;57425;51.616;6.680;2022-11-11T06:43:11;8.43;;;3.00;;
70067;SDS011;57425;51.616;6.680;2022-11-11T06:45:36;7.47;;;3.60;;
70067;SDS011;57425;51.616;6.680;2022-11-11T06:48:03;9.57;;;3.53;;
70067;SDS011;57425;51.616;6.680;2022-11-11T06:50:29;11.90;;;3.87;;
70067;SDS011;57425;51.616;6.680;2022-11-11T06:53:00;16.50;;;5.20;;
70067;SDS011;57425;51.616;6.680;2022-11-11T06:55:37;8.93;;;4.30;;
70067;SDS011;57425;51.616;6.680;2022-11-11T06:58:04;12.03;;;3.90;;
70067;SDS011;57425;51.616;6.680;2022-11-11T07:00:34;12.40;;;4.70;;
70067;SDS011;57425;51.616;6.680;2022-11-11T07:03:01;14.67;;;4.47;;
70067;SDS011;57425;51.616;6.680;2022-11-11T07:05:28;13.60;;;4.73;;
70067;SDS011;57425;51.616;6.680;2022-11-11T07:07:53;14.20;;;5.17;;
70067;SDS011;57425;51.616;6.680;2022-11-11T07:10:19;14.93;;;4.70;;
70067;SDS011;57425;51.616;6.680;2022-11-11T07:12:45;15.63;;;4.90;;
70067;SDS011;57425;51.616;6.680;2022-11-11T07:15:11;18.53;;;5.57;;
70067;SDS011;57425;51.616;6.680;2022-11-11T07:17:37;15.00;;;4.63;;
70067;SDS011;57425;51.616;6.680;2022-11-11T07:20:03;10.33;;;3.60;;
70067;SDS011;57425;51.616;6.680;2022-11-11T07:22:29;11.47;;;4.53;;
70067;SDS011;57425;51.616;6.680;2022-11-11T07:24:54;11.73;;;4.80;;
70067;SDS011;57425;51.616;6.680;2022-11-11T07:27:20;9.30;;;3.63;;
70067;SDS011;57425;51.616;6.680;2022-11-11T07:29:45;10.03;;;3.70;;
70067;SDS011;57425;51.616;6.680;2022-11-11T07:32:12;11.00;;;4.57;;
70067;SDS011;57425;51.616;6.680;2022-11-11T07:34:41;9.27;;;4.03;;
70067;SDS011;57425;51.616;6.680;2022-11-11T07:37:08;9.87;;;3.70;;
70067;SDS011;57425;51.616;6.680;2022-11-11T07:39:34;12.03;;;4.53;;
70067;SDS011;57425;51.616;6.680;2022-11-11T07:42:00;11.33;;;4.80;;
70067;SDS011;57425;51.616;6.680;2022-11-11T07:44:25;7.20;;;3.23;;
70067;SDS011;57425;51.616;6.680;2022-11-11T07:46:51;10.00;;;4.27;;
70067;SDS011;57425;51.616;6.680;2022-11-11T07:49:16;6.87;;;3.50;;
70067;SDS011;57425;51.616;6.680;2022-11-11T07:51:42;10.00;;;3.87;;
70067;SDS011;57425;51.616;6.680;2022-11-11T07:54:08;24.00;;;4.43;;
70067;SDS011;57425;51.616;6.680;2022-11-11T07:56:33;10.40;;;3.57;;
70067;SDS011;57425;51.616;6.680;2022-11-11T07:58:59;9.53;;;4.10;;
70067;SDS011;57425;51.616;6.680;2022-11-11T08:01:25;8.37;;;4.00;;
70067;SDS011;57425;51.616;6.680;2022-11-11T08:03:50;25.53;;;4.93;;
70067;SDS011;57425;51.616;6.680;2022-11-11T08:06:19;10.00;;;3.90;;
70067;SDS011;57425;51.616;6.680;2022-11-11T08:08:46;9.10;;;3.07;;
70067;SDS011;57425;51.616;6.680;2022-11-11T08:11:19;8.97;;;3.53;;
70067;SDS011;57425;51.616;6.680;2022-11-11T08:14:04;8.07;;;4.07;;
70067;SDS011;57425;51.616;6.680;2022-11-11T08:16:30;11.47;;;4.37;;
70067;SDS011;57425;51.616;6.680;2022-11-11T08:18:55;14.90;;;3.30;;
70067;SDS011;57425;51.616;6.680;2022-11-11T08:21:22;7.43;;;3.67;;
70067;SDS011;57425;51.616;6.680;2022-11-11T08:23:48;15.00;;;3.90;;
70067;SDS011;57425;51.616;6.680;2022-11-11T08:26:13;7.40;;;3.20;;
70067;SDS011;57425;51.616;6.680;2022-11-11T08:28:39;12.83;;;3.67;;
70067;SDS011;57425;51.616;6.680;2022-11-11T08:31:05;11.33;;;3.20;;
70067;SDS011;57425;51.616;6.680;2022-11-11T08:33:30;6.83;;;2.97;;
70067;SDS011;57425;51.616;6.680;2022-11-11T08:35:57;6.73;;;3.60;;
70067;SDS011;57425;51.616;6.680;2022-11-11T08:38:23;6.50;;;2.87;;
70067;SDS011;57425;51.616;6.680;2022-11-11T08:40:49;21.97;;;4.67;;
70067;SDS011;57425;51.616;6.680;2022-11-11T08:43:16;10.23;;;3.33;;
70067;SDS011;57425;51.616;6.680;2022-11-11T08:45:42;19.13;;;3.77;;
70067;SDS011;57425;51.616;6.680;2022-11-11T08:48:08;5.20;;;3.03;;
70067;SDS011;57425;51.616;6.680;2022-11-11T08:50:35;13.10;;;3.20;;
70067;SDS011;57425;51.616;6.680;2022-11-11T08:53:02;9.90;;;3.50;;
70067;SDS011;57425;51.616;6.680;2022-11-11T08:55:28;8.07;;;3.90;;
70067;SDS011;57425;51.616;6.680;2022-11-11T08:57:57;8.40;;;4.03;;
70067;SDS011;57425;51.616;6.680;2022-11-11T09:00:23;8.83;;;4.17;;
70067;SDS011;57425;51.616;6.680;2022-11-11T09:02:49;6.77;;;3.20;;
70067;SDS011;57425;51.616;6.680;2022-11-11T09:05:15;13.10;;;4.50;;
70067;SDS011;57425;51.616;6.680;2022-11-11T09:07:41;9.77;;;3.40;;
70067;SDS011;57425;51.616;6.680;2022-11-11T09:10:07;9.63;;;3.17;;
70067;SDS011;57425;51.616;6.680;2022-11-11T09:12:33;7.90;;;3.23;;
70067;SDS011;57425;51.616;6.680;2022-11-11T09:14:58;12.83;;;3.70;;
70067;SDS011;57425;51.616;6.680;2022-11-11T09:17:25;5.40;;;3.13;;
70067;SDS011;57425;51.616;6.680;2022-11-11T09:19:51;8.07;;;2.87;;
70067;SDS011;57425;51.616;6.680;2022-11-11T09:22:17;8.43;;;2.90;;
70067;SDS011;57425;51.616;6.680;2022-11-11T09:24:43;7.20;;;2.33;;
70067;SDS011;57425;51.616;6.680;2022-11-11T09:27:09;5.87;;;2.40;;
70067;SDS011;57425;51.616;6.680;2022-11-11T09:29:36;6.67;;;2.47;;
70067;SDS011;57425;51.616;6.680;2022-11-11T09:32:02;4.23;;;2.40;;
70067;SDS011;57425;51.616;6.680;2022-11-11T09:34:29;6.53;;;2.20;;
70067;SDS011;57425;51.616;6.680;2022-11-11T09:36:54;5.53;;;2.73;;
70067;SDS011;57425;51.616;6.680;2022-11-11T09:39:21;4.20;;;2.30;;
70067;SDS011;57425;51.616;6.680;2022-11-11T09:41:51;6.63;;;2.57;;
70067;SDS011;57425;51.616;6.680;2022-11-11T09:47:20;6.23;;;2.53;;
70067;SDS011;57425;51.616;6.680;2022-11-11T09:50:03;7.23;;;2.17;;
70067;SDS011;57425;51.616;6.680;2022-11-11T09:52:37;3.80;;;2.10;;
70067;SDS011;57425;51.616;6.680;2022-11-11T09:55:21;4.17;;;2.17;;
70067;SDS011;57425;51.616;6.680;2022-11-11T09:57:54;8.23;;;2.73;;
70067;SDS011;57425;51.616;6.680;2022-11-11T10:00:24;12.20;;;3.07;;
70067;SDS011;57425;51.616;6.680;2022-11-11T10:02:58;4.63;;;2.08;;
70067;SDS011;57425;51.616;6.680;2022-11-11T10:05:47;7.57;;;2.37;;
70067;SDS011;57425;51.616;6.680;2022-11-11T10:08:24;5.30;;;2.77;;
70067;SDS011;57425;51.616;6.680;2022-11-11T10:10:53;5.07;;;1.90;;
70067;SDS011;57425;51.616;6.680;2022-11-11T10:13:29;6.23;;;2.53;;
70067;SDS011;57425;51.616;6.680;2022-11-11T10:16:05;5.90;;;2.43;;
70067;SDS011;57425;51.616;6.680;2022-11-11T10:21:41;3.00;;;1.80;;
70067;SDS011;57425;51.616;6.680;2022-11-11T10:24:15;3.08;;;2.00;;
70067;SDS011;57425;51.616;6.680;2022-11-11T10:26:46;5.60;;;2.03;;
70067;SDS011;57425;51.616;6.680;2022-11-11T10:29:16;6.20;;;2.37;;
70067;SDS011;57425;51.616;6.680;2022-11-11T10:31:44;5.97;;;2.17;;
70067;SDS011;57425;51.616;6.680;2022-11-11T10:34:16;2.95;;;1.90;;
70067;SDS011;57425;51.616;6.680;2022-11-11T10:36:45;3.80;;;1.97;;
70067;SDS011;57425;51.616;6.680;2022-11-11T10:39:21;7.73;;;2.27;;
70067;SDS011;57425;51.616;6.680;2022-11-11T10:41:51;6.03;;;1.98;;
70067;SDS011;57425;51.616;6.680;2022-11-11T10:44:21;4.37;;;2.00;;
70067;SDS011;57425;51.616;6.680;2022-11-11T10:46:57;3.77;;;1.73;;
70067;SDS011;57425;51.616;6.680;2022-11-11T10:49:25;6.40;;;2.10;;
70067;SDS011;57425;51.616;6.680;2022-11-11T10:52:07;3.10;;;1.80;;
70067;SDS011;57425;51.616;6.680;2022-11-11T10:57:09;5.73;;;1.67;;
70067;SDS011;57425;51.616;6.680;2022-11-11T10:59:50;3.57;;;1.80;;
70067;SDS011;57425;51.616;6.680;2022-11-11T11:02:26;3.73;;;1.30;;
70067;SDS011;57425;51.616;6.680;2022-11-11T11:05:20;4.67;;;1.70;;
70067;SDS011;57425;51.616;6.680;2022-11-11T11:08:36;4.63;;;1.07;;
70067;SDS011;57425;51.616;6.680;2022-11-11T11:11:00;11.53;;;1.70;;
70067;SDS011;57425;51.616;6.680;2022-11-11T11:13:29;3.43;;;1.63;;
70067;SDS011;57425;51.616;6.680;2022-11-11T11:16:08;6.17;;;1.63;;
70067;SDS011;57425;51.616;6.680;2022-11-11T11:18:41;5.57;;;1.70;;
70067;SDS011;57425;51.616;6.680;2022-11-11T11:21:09;4.20;;;1.60;;
70067;SDS011;57425;51.616;6.680;2022-11-11T11:23:39;3.40;;;1.23;;
70067;SDS011;57425;51.616;6.680;2022-11-11T11:26:07;6.07;;;1.60;;
70067;SDS011;57425;51.616;6.680;2022-11-11T11:28:51;3.60;;;1.20;;
70067;SDS011;57425;51.616;6.680;2022-11-11T11:31:36;3.30;;;1.13;;
70067;SDS011;57425;51.616;6.680;2022-11-11T11:34:03;3.43;;;1.17;;
70067;SDS011;57425;51.616;6.680;2022-11-11T11:36:29;4.20;;;1.20;;
70067;SDS011;57425;51.616;6.680;2022-11-11T11:38:56;2.80;;;1.40;;
70067;SDS011;57425;51.616;6.680;2022-11-11T11:41:35;4.87;;;0.90;;
70067;SDS011;57425;51.616;6.680;2022-11-11T11:44:24;5.80;;;1.03;;
70067;SDS011;57425;51.616;6.680;2022-11-11T11:46:53;3.37;;;1.03;;
70067;SDS011;57425;51.616;6.680;2022-11-11T11:52:00;2.10;;;0.90;;
70067;SDS011;57425;51.616;6.680;2022-11-11T11:54:55;4.10;;;1.03;;
70067;SDS011;57425;51.616;6.680;2022-11-11T12:03:00;1.80;;;0.90;;
70067;SDS011;57425;51.616;6.680;2022-11-11T12:06:01;5.13;;;1.17;;
70067;SDS011;57425;51.616;6.680;2022-11-11T12:19:47;14.30;;;1.33;;
70067;SDS011;57425;51.616;6.680;2022-11-11T12:41:19;6.93;;;1.47;;
70067;SDS011;57425;51.616;6.680;2022-11-11T12:52:13;4.37;;;1.50;;
70067;SDS011;57425;51.616;6.680;2022-11-11T12:54:59;6.90;;;1.00;;
70067;SDS011;57425;51.616;6.680;2022-11-11T13:00:23;6.53;;;1.03;;
70067;SDS011;57425;51.616;6.680;2022-11-11T13:03:05;10.07;;;1.43;;
70067;SDS011;57425;51.616;6.680;2022-11-11T13:08:37;2.50;;;1.10;;
70067;SDS011;57425;51.616;6.680;2022-11-11T13:16:43;4.07;;;1.57;;
70067;SDS011;57425;51.616;6.680;2022-11-11T13:19:20;5.93;;;2.17;;
70067;SDS011;57425;51.616;6.680;2022-11-11T13:22:20;5.00;;;2.03;;
70067;SDS011;57425;51.616;6.680;2022-11-11T13:24:51;58.43;;;24.53;;
70067;SDS011;57425;51.616;6.680;2022-11-11T13:30:06;25.47;;;12.60;;
70067;SDS011;57425;51.616;6.680;2022-11-11T13:32:57;25.23;;;9.10;;
70067;SDS011;57425;51.616;6.680;2022-11-11T13:35:32;9.43;;;3.87;;
70067;SDS011;57425;51.616;6.680;2022-11-11T13:38:08;5.27;;;4.00;;
70067;SDS011;57425;51.616;6.680;2022-11-11T13:40:58;4.77;;;2.63;;
70067;SDS011;57425;51.616;6.680;2022-11-11T13:43:28;5.13;;;2.13;;
70067;SDS011;57425;51.616;6.680;2022-11-11T13:45:58;5.00;;;2.50;;
70067;SDS011;57425;51.616;6.680;2022-11-11T13:48:30;10.73;;;3.10;;
70067;SDS011;57425;51.616;6.680;2022-11-11T13:53:50;15.67;;;3.83;;
70067;SDS011;57425;51.616;6.680;2022-11-11T13:56:21;8.70;;;4.10;;
70067;SDS011;57425;51.616;6.680;2022-11-11T13:58:48;10.80;;;3.33;;
70067;SDS011;57425;51.616;6.680;2022-11-11T14:01:14;6.87;;;3.00;;
70067;SDS011;57425;51.616;6.680;2022-11-11T14:13:50;11.33;;;3.37;;
70067;SDS011;57425;51.616;6.680;2022-11-11T14:18:58;8.93;;;3.40;;
70067;SDS011;57425;51.616;6.680;2022-11-11T14:21:53;10.03;;;3.77;;
70067;SDS011;57425;51.616;6.680;2022-11-11T14:24:34;9.00;;;3.23;;
70067;SDS011;57425;51.616;6.680;2022-11-11T14:29:37;8.23;;;3.47;;
70067;SDS011;57425;51.616;6.680;2022-11-11T14:40:11;6.72;;;2.78;;
70067;SDS011;57425;51.616;6.680;2022-11-11T14:47:47;11.73;;;3.40;;
70067;SDS011;57425;51.616;6.680;2022-11-11T14:52:58;7.60;;;3.00;;
70067;SDS011;57425;51.616;6.680;2022-11-11T15:03:25;7.33;;;2.80;;
70067;SDS011;57425;51.616;6.680;2022-11-11T15:06:03;5.20;;;2.50;;
70067;SDS011;57425;51.616;6.680;2022-11-11T15:14:06;9.03;;;3.57;;
70067;SDS011;57425;51.616;6.680;2022-11-11T15:30:13;20.13;;;5.50;;
70067;SDS011;57425;51.616;6.680;2022-11-11T15:32:44;50.23;;;20.10;;
70067;SDS011;57425;51.616;6.680;2022-11-11T15:37:52;35.83;;;16.60;;
70067;SDS011;57425;51.616;6.680;2022-11-11T15:40:22;29.03;;;13.20;;
70067;SDS011;57425;51.616;6.680;2022-11-11T15:42:54;26.05;;;10.32;;
70067;SDS011;57425;51.616;6.680;2022-11-11T15:47:56;12.07;;;4.93;;
70067;SDS011;57425;51.616;6.680;2022-11-11T15:52:53;13.53;;;5.10;;
70067;SDS011;57425;51.616;6.680;2022-11-11T15:55:28;16.10;;;3.83;;
70067;SDS011;57425;51.616;6.680;2022-11-11T15:58:06;9.27;;;3.87;;
70067;SDS011;57425;51.616;6.680;2022-11-11T16:00:34;7.87;;;3.67;;
70067;SDS011;57425;51.616;6.680;2022-11-11T16:03:01;16.77;;;3.47;;
70067;SDS011;57425;51.616;6.680;2022-11-11T16:05:27;7.60;;;3.13;;
70067;SDS011;57425;51.616;6.680;2022-11-11T16:07:56;10.97;;;2.43;;
70067;SDS011;57425;51.616;6.680;2022-11-11T16:15:46;3.93;;;2.10;;
70067;SDS011;57425;51.616;6.680;2022-11-11T16:18:28;8.87;;;2.60;;
70067;SDS011;57425;51.616;6.680;2022-11-11T16:21:10;12.53;;;2.67;;
70067;SDS011;57425;51.616;6.680;2022-11-11T16:23:43;9.10;;;2.60;;
70067;SDS011;57425;51.616;6.680;2022-11-11T16:26:10;5.50;;;2.80;;
70067;SDS011;57425;51.616;6.680;2022-11-11T16:28:39;8.53;;;3.10;;
70067;SDS011;57425;51.616;6.680;2022-11-11T16:33:58;4.60;;;2.53;;
70067;SDS011;57425;51.616;6.680;2022-11-11T16:36:57;5.27;;;2.27;;
70067;SDS011;57425;51.616;6.680;2022-11-11T16:39:33;5.20;;;2.53;;
70067;SDS011;57425;51.616;6.680;2022-11-11T16:42:03;9.47;;;2.20;;
70067;SDS011;57425;51.616;6.680;2022-11-11T16:47:05;8.30;;;2.57;;
70067;SDS011;57425;51.616;6.680;2022-11-11T16:49:59;10.90;;;2.47;;
70067;SDS011;57425;51.616;6.680;2022-11-11T16:53:00;4.37;;;2.23;;
70067;SDS011;57425;51.616;6.680;2022-11-11T16:55:34;5.53;;;2.57;;
70067;SDS011;57425;51.616;6.680;2022-11-11T16:58:11;5.45;;;2.25;;
70067;SDS011;57425;51.616;6.680;2022-11-11T17:00:40;6.07;;;2.23;;
70067;SDS011;57425;51.616;6.680;2022-11-11T17:10:59;9.63;;;2.67;;
70067;SDS011;57425;51.616;6.680;2022-11-11T17:13:26;5.20;;;2.17;;
70067;SDS011;57425;51.616;6.680;2022-11-11T17:15:53;4.27;;;1.93;;
70067;SDS011;57425;51.616;6.680;2022-11-11T17:18:19;4.97;;;2.50;;
70067;SDS011;57425;51.616;6.680;2022-11-11T17:20:46;6.17;;;2.40;;
70067;SDS011;57425;51.616;6.680;2022-11-11T17:23:13;4.47;;;1.97;;
70067;SDS011;57425;51.616;6.680;2022-11-11T17:25:38;4.20;;;1.63;;
70067;SDS011;57425;51.616;6.680;2022-11-11T17:28:04;5.17;;;2.47;;
70067;SDS011;57425;51.616;6.680;2022-11-11T17:30:30;7.70;;;2.33;;
70067;SDS011;57425;51.616;6.680;2022-11-11T17:32:55;6.17;;;2.73;;
70067;SDS011;57425;51.616;6.680;2022-11-11T17:35:21;5.77;;;2.43;;
70067;SDS011;57425;51.616;6.680;2022-11-11T17:37:46;8.00;;;2.77;;
70067;SDS011;57425;51.616;6.680;2022-11-11T17:40:12;9.90;;;2.83;;
70067;SDS011;57425;51.616;6.680;2022-11-11T17:42:38;6.30;;;2.37;;
70067;SDS011;57425;51.616;6.680;2022-11-11T17:45:03;3.83;;;2.00;;
70067;SDS011;57425;51.616;6.680;2022-11-11T17:47:30;6.40;;;2.33;;
70067;SDS011;57425;51.616;6.680;2022-11-11T17:49:57;10.47;;;2.53;;
70067;SDS011;57425;51.616;6.680;2022-11-11T17:52:23;6.73;;;2.40;;
70067;SDS011;57425;51.616;6.680;2022-11-11T17:54:49;7.03;;;2.50;;
70067;SDS011;57425;51.616;6.680;2022-11-11T17:57:15;4.70;;;2.43;;
70067;SDS011;57425;51.616;6.680;2022-11-11T17:59:41;15.23;;;2.20;;